Terminal Aerodrome Forecast
Issued by NWS

Home | Current Version | Previous Version | Text Only | Print | Product List | Glossary On
Versions: 1 2 3 4 5 6 7 8 9 10 11 12 13
422
FTUS45 KABQ 210528
TAFROW
TAF
KROW 210528Z 2106/2206 22008KT P6SM SKC
     FM211200 18010KT P6SM SKC
     FM211900 19015G24KT P6SM FEW110
     FM220130 18008KT P6SM SCT110=

USA.gov is the U.S. government's official web portal to all federal, state and local government web resources and services.